Time;durP1;ratioP1;P1;durP2;ratioP2;P2;SDS_P1;SDS_P2;PMS_P1;PMS_P2;Temp;Humidity;BMP_temperature;BMP_pressure;BME280_temperature;BME280_humidity;BME280_pressure;Samples;Min_cycle;Max_cycle;Signal;HPM_P1;HPM_P2
2022/09/18 18:01:07;;;;;;;0.50;0.50;;;;;;;;;;5073243;27;20329;-86
2022/09/18 18:03:53;;;;;;;1.00;0.50;;;;;;;;;;5064030;28;20381;-82
2022/09/18 18:06:37;;;;;;;0.45;0.45;;;;;;;;;;5065909;28;20039;-82
2022/09/18 18:09:23;;;;;;;0.50;0.50;;;;;;;;;;5050642;28;20047;-82
2022/09/18 18:12:07;;;;;;;0.50;0.50;;;;;;;;;;5057345;28;20066;-83
2022/09/18 18:14:52;;;;;;;0.60;0.60;;;;;;;;;;5065534;28;20035;-83
2022/09/18 18:17:36;;;;;;;0.50;0.50;;;;;;;;;;5065245;28;20039;-83
2022/09/18 18:20:21;;;;;;;1.75;0.88;;;;;;;;;;5064811;28;20047;-84
2022/09/18 18:23:05;;;;;;;2.25;1.27;;;;;;;;;;5049372;28;20051;-84
2022/09/18 18:25:50;;;;;;;3.42;1.95;;;;;;;;;;5059029;28;20480;-85
2022/09/18 18:28:35;;;;;;;2.70;2.25;;;;;;;;;;5053055;28;20043;-85
2022/09/18 18:31:21;;;;;;;4.32;3.92;;;;;;;;;;5065003;28;20689;-85
2022/09/18 18:34:09;;;;;;;1.52;0.98;;;;;;;;;;5064990;28;20139;-84
2022/09/18 18:36:54;;;;;;;5.50;4.80;;;;;;;;;;5051020;28;20178;-85
2022/09/18 18:39:39;;;;;;;2.00;1.45;;;;;;;;;;5050276;28;20102;-86
2022/09/18 18:42:27;;;;;;;7.22;3.40;;;;;;;;;;5050004;28;20623;-85
2022/09/18 18:45:12;;;;;;;4.32;3.92;;;;;;;;;;5049434;28;20098;-86
2022/09/18 18:47:56;;;;;;;2.03;1.10;;;;;;;;;;5049525;28;20039;-86
2022/09/18 18:50:41;;;;;;;1.20;0.73;;;;;;;;;;5065033;28;20130;-86
2022/09/18 18:53:26;;;;;;;2.28;1.45;;;;;;;;;;5065046;28;20047;-89
2022/09/18 18:56:14;;;;;;;3.17;1.27;;;;;;;;;;5064570;28;20515;-88
2022/09/18 18:59:00;;;;;;;1.27;0.80;;;;;;;;;;5063992;28;20405;-86
2022/09/18 19:01:46;;;;;;;0.98;0.70;;;;;;;;;;5049754;28;20140;-87
2022/09/18 19:04:33;;;;;;;12.40;1.92;;;;;;;;;;5065023;28;20079;-88
2022/09/18 19:07:19;;;;;;;1.45;0.70;;;;;;;;;;5073505;28;20405;-89
2022/09/18 19:10:03;;;;;;;2.85;0.95;;;;;;;;;;5051063;28;20119;-86
2022/09/18 19:12:48;;;;;;;4.25;0.80;;;;;;;;;;5053768;28;20079;-91
2022/09/18 19:15:35;;;;;;;6.20;1.05;;;;;;;;;;5047679;28;20064;-90
2022/09/18 19:18:21;;;;;;;5.28;1.27;;;;;;;;;;5036712;28;20028;-91
2022/09/18 19:21:06;;;;;;;7.57;3.70;;;;;;;;;;5053279;28;20114;-86
2022/09/18 19:23:51;;;;;;;1.30;0.75;;;;;;;;;;5051346;28;20584;-91
2022/09/18 19:26:36;;;;;;;1.77;1.30;;;;;;;;;;5037750;28;20465;-92
2022/09/18 19:29:21;;;;;;;2.30;0.85;;;;;;;;;;5048727;28;20048;-89
2022/09/18 19:32:07;;;;;;;0.88;0.88;;;;;;;;;;5052055;28;20031;-90
2022/09/18 19:34:52;;;;;;;1.20;0.60;;;;;;;;;;5053416;28;20040;-91
2022/09/18 19:37:37;;;;;;;1.48;0.90;;;;;;;;;;5051777;28;20044;-90
2022/09/18 19:40:21;;;;;;;3.65;1.48;;;;;;;;;;5031387;28;20167;-90
2022/09/18 19:43:08;;;;;;;2.47;1.10;;;;;;;;;;5052272;28;20044;-86
2022/09/18 19:45:53;;;;;;;6.03;3.10;;;;;;;;;;5034382;28;20524;-89
2022/09/18 19:48:42;;;;;;;3.13;2.10;;;;;;;;;;5035615;28;20067;-89
2022/09/18 19:51:27;;;;;;;2.78;1.50;;;;;;;;;;5049527;28;20028;-91
2022/09/18 19:54:12;;;;;;;4.43;1.52;;;;;;;;;;5043295;28;20044;-89
2022/09/18 19:56:58;;;;;;;1.55;0.90;;;;;;;;;;5047746;28;20036;-90
2022/09/18 19:59:43;;;;;;;0.80;0.70;;;;;;;;;;5050242;28;20088;-89
2022/09/18 20:02:28;;;;;;;10.52;1.85;;;;;;;;;;5049381;28;20067;-89
2022/09/18 20:05:12;;;;;;;12.65;3.55;;;;;;;;;;5049819;28;20036;-89
2022/09/18 20:07:57;;;;;;;18.30;3.17;;;;;;;;;;5025780;28;20063;-89
2022/09/18 20:10:41;;;;;;;16.08;3.20;;;;;;;;;;5050118;28;20124;-89
2022/09/18 20:13:26;;;;;;;10.70;3.47;;;;;;;;;;5049173;28;20389;-89
2022/09/18 20:16:11;;;;;;;12.45;2.97;;;;;;;;;;5027549;28;20679;-87
2022/09/18 20:18:55;;;;;;;9.52;2.10;;;;;;;;;;5046162;28;20044;-89
2022/09/18 20:21:40;;;;;;;11.30;2.40;;;;;;;;;;5050021;28;20052;-90
2022/09/18 20:24:24;;;;;;;16.67;2.90;;;;;;;;;;5023880;28;20071;-90
2022/09/18 20:27:09;;;;;;;14.63;2.08;;;;;;;;;;5036047;28;20045;-89
2022/09/18 20:29:54;;;;;;;15.00;2.50;;;;;;;;;;5038299;28;20048;-89
2022/09/18 20:32:38;;;;;;;17.00;2.75;;;;;;;;;;5037791;28;20151;-89
2022/09/18 20:35:23;;;;;;;11.43;2.30;;;;;;;;;;5052852;28;20060;-87
2022/09/18 20:38:08;;;;;;;12.32;2.15;;;;;;;;;;5037621;28;20048;-89
2022/09/18 20:40:57;;;;;;;11.95;2.13;;;;;;;;;;5036005;28;20067;-89
2022/09/18 20:43:43;;;;;;;9.70;1.73;;;;;;;;;;5038118;28;20035;-89
2022/09/18 20:46:27;;;;;;;13.40;3.83;;;;;;;;;;5047164;28;20032;-90
2022/09/18 20:49:16;;;;;;;19.08;2.30;;;;;;;;;;5052982;28;20417;-88
2022/09/18 20:52:02;;;;;;;17.08;2.10;;;;;;;;;;5053015;28;20040;-88
2022/09/18 20:54:48;;;;;;;8.57;1.70;;;;;;;;;;5052840;28;20067;-89
2022/09/18 20:57:33;;;;;;;14.02;2.65;;;;;;;;;;5052364;28;20400;-87
2022/09/18 21:00:18;;;;;;;9.23;1.73;;;;;;;;;;5049108;28;20060;-86
2022/09/18 21:03:02;;;;;;;5.90;1.42;;;;;;;;;;5029290;28;20044;-87
2022/09/18 21:05:47;;;;;;;3.45;1.00;;;;;;;;;;5052608;28;20095;-88
2022/09/18 21:08:32;;;;;;;7.28;1.08;;;;;;;;;;5051958;28;20139;-86
2022/09/18 21:11:17;;;;;;;3.65;0.80;;;;;;;;;;5052406;28;20048;-86
2022/09/18 21:14:03;;;;;;;1.95;0.70;;;;;;;;;;5052555;28;20496;-87
2022/09/18 21:16:47;;;;;;;4.07;1.23;;;;;;;;;;5052477;28;20032;-88
2022/09/18 21:19:33;;;;;;;5.25;1.15;;;;;;;;;;5030051;28;20045;-88
2022/09/18 21:22:17;;;;;;;2.55;0.60;;;;;;;;;;5048218;28;20047;-88
2022/09/18 21:25:02;;;;;;;3.63;0.82;;;;;;;;;;5052360;28;20067;-87
2022/09/18 21:27:47;;;;;;;2.60;0.80;;;;;;;;;;5052269;28;20039;-87
2022/09/18 21:30:31;;;;;;;6.40;0.90;;;;;;;;;;5051814;28;20048;-88
2022/09/18 21:33:16;;;;;;;2.50;0.95;;;;;;;;;;5052216;28;20083;-87
2022/09/18 21:36:01;;;;;;;1.50;0.80;;;;;;;;;;5052362;28;20508;-87
2022/09/18 21:38:47;;;;;;;3.05;0.80;;;;;;;;;;5051971;28;20108;-87
2022/09/18 21:41:39;;;;;;;0.98;0.63;;;;;;;;;;5051661;28;20503;-88
2022/09/18 21:44:25;;;;;;;3.22;0.70;;;;;;;;;;5036756;28;20074;-87
2022/09/18 21:47:12;;;;;;;1.02;0.60;;;;;;;;;;5038754;28;20044;-87
2022/09/18 21:49:56;;;;;;;1.25;0.60;;;;;;;;;;5052037;28;20040;-88
2022/09/18 21:52:44;;;;;;;0.68;0.50;;;;;;;;;;5051642;28;20397;-88
2022/09/18 21:55:37;;;;;;;0.82;0.63;;;;;;;;;;5051411;28;20032;-88
2022/09/18 21:58:21;;;;;;;1.63;0.63;;;;;;;;;;5024184;28;20087;-87
2022/09/18 22:01:14;;;;;;;1.50;0.60;;;;;;;;;;5017255;28;20044;-88
2022/09/18 22:04:01;;;;;;;1.10;0.43;;;;;;;;;;5032040;28;20055;-87
2022/09/18 22:06:46;;;;;;;0.52;0.50;;;;;;;;;;5031626;28;20055;-88
2022/09/18 22:09:36;;;;;;;3.20;0.60;;;;;;;;;;5031576;28;20048;-89
2022/09/18 22:12:21;;;;;;;3.28;0.60;;;;;;;;;;5032018;28;20033;-89
2022/09/18 22:15:06;;;;;;;1.13;0.70;;;;;;;;;;5032107;28;20072;-88
2022/09/18 22:17:51;;;;;;;1.67;0.70;;;;;;;;;;5031726;28;20087;-88
2022/09/18 22:20:36;;;;;;;3.10;0.90;;;;;;;;;;5031340;28;20473;-88
2022/09/18 22:23:21;;;;;;;1.27;0.60;;;;;;;;;;5017092;28;20516;-88
2022/09/18 22:26:05;;;;;;;0.50;0.50;;;;;;;;;;5031700;28;20397;-88
2022/09/18 22:28:52;;;;;;;2.42;0.63;;;;;;;;;;5031326;28;20057;-88
2022/09/18 22:31:38;;;;;;;2.08;0.40;;;;;;;;;;5016529;28;20528;-88
2022/09/18 22:34:25;;;;;;;3.20;0.63;;;;;;;;;;5032002;28;20099;-88
2022/09/18 22:37:10;;;;;;;2.90;0.40;;;;;;;;;;5020151;28;20397;-88
2022/09/18 22:39:55;;;;;;;3.08;0.60;;;;;;;;;;5031455;28;20049;-88
2022/09/18 22:42:39;;;;;;;2.33;0.60;;;;;;;;;;5016457;28;20458;-88
2022/09/18 22:45:24;;;;;;;4.47;0.60;;;;;;;;;;5016786;28;20433;-88
2022/09/18 22:48:09;;;;;;;1.55;0.70;;;;;;;;;;5035532;28;20041;-89
2022/09/18 22:50:53;;;;;;;4.18;0.60;;;;;;;;;;5006112;28;20076;-87
2022/09/18 22:53:39;;;;;;;1.05;0.57;;;;;;;;;;5034783;28;20044;-87
2022/09/18 22:56:27;;;;;;;3.05;1.20;;;;;;;;;;5020503;28;20091;-89
2022/09/18 22:59:12;;;;;;;1.00;0.80;;;;;;;;;;5040387;28;20060;-89
2022/09/18 23:01:59;;;;;;;0.73;0.70;;;;;;;;;;5054736;28;20439;-90
2022/09/18 23:04:44;;;;;;;2.20;0.70;;;;;;;;;;5039524;28;20043;-89
2022/09/18 23:07:29;;;;;;;0.65;0.50;;;;;;;;;;5039845;28;20052;-89
2022/09/18 23:10:13;;;;;;;0.52;0.50;;;;;;;;;;5054858;28;20103;-87
2022/09/18 23:12:58;;;;;;;1.15;0.65;;;;;;;;;;5039572;28;20476;-89
2022/09/18 23:15:42;;;;;;;0.65;0.60;;;;;;;;;;5054291;28;20110;-88
2022/09/18 23:18:28;;;;;;;0.63;0.60;;;;;;;;;;5054973;28;20511;-90
2022/09/18 23:21:12;;;;;;;0.82;0.60;;;;;;;;;;5041539;28;20044;-88
2022/09/18 23:23:58;;;;;;;2.45;0.70;;;;;;;;;;5054104;28;20094;-89
2022/09/18 23:26:44;;;;;;;0.40;0.40;;;;;;;;;;5040396;28;20067;-88
2022/09/18 23:29:30;;;;;;;2.55;0.60;;;;;;;;;;5054566;28;20516;-90
2022/09/18 23:32:15;;;;;;;1.42;0.60;;;;;;;;;;5026011;28;20048;-91
2022/09/18 23:34:59;;;;;;;6.25;1.10;;;;;;;;;;5053913;28;20044;-88
2022/09/18 23:37:44;;;;;;;2.63;0.60;;;;;;;;;;5039057;28;20048;-88
2022/09/18 23:40:29;;;;;;;5.30;0.68;;;;;;;;;;5054541;28;20044;-88
2022/09/18 23:43:14;;;;;;;1.83;0.50;;;;;;;;;;5054397;28;20090;-89
2022/09/18 23:45:58;;;;;;;2.08;0.60;;;;;;;;;;5053877;28;20141;-88
2022/09/18 23:48:43;;;;;;;2.17;0.50;;;;;;;;;;5053665;28;20531;-88
2022/09/18 23:51:29;;;;;;;1.67;0.68;;;;;;;;;;5054504;28;20404;-88
2022/09/18 23:54:22;;;;;;;1.73;0.70;;;;;;;;;;5042974;28;20083;-88
2022/09/18 23:57:07;;;;;;;1.65;0.50;;;;;;;;;;5053909;28;20614;-88
2022/09/18 23:59:52;;;;;;;3.30;0.40;;;;;;;;;;5053702;28;20056;-89
